Fallon, Montana
Current Conditions -  °F | °C
As of 9:55 PM on Friday 28 Nov 2014 (Local Time) from KGDV Reporting Station
Overcast Overcast  
Wind Chill: 18°   Ceiling: 800
Heat Index: 28°   Visibility: 8mi
Dew Point: 25°   Wind: 12mph
Humidity: 86%   Direction: 340°NNW
Pressure: 29.43"   Gusts: NA
Location:  46.83°N, 105.13°W
Report Text: KGDV 290455Z AUTO 34010KT 8SM BKN008 OVC110 M02/M04 A2943 RMK AO1
Loading
Personal Weather Stations






























Interactive Weather Map New forecast layout! Learn more

10-Day Weather Forecast

Advertisements
Track Severe Weather on mobile